Overview Statistics Trail Chart Weather Telemetry Raw packets
 

This is the latest recevied weather packets stored in our database for station/object KCDH. If no packets are shown the sender has not sent any weather packets the latest 10 day(s).

<< 1 2 3 4 5 6 >>
Time Temp. Humidity Pressure Rain* Wind** Luminosity Snow
1788548006 35.56° C 41% 1013.5 hPa - - - -
1788547405 35.56° C 41% 1013.5 hPa - - - -
1788546804 35.56° C 41% 1013.9 hPa - - - -
1788546205 35.56° C 41% 1013.9 hPa - - - -
1788545606 33.89° C 46% 1014.6 hPa - - - -
1788545006 33.89° C 46% 1014.6 hPa - - - -
1788544410 35° C 47% 1014.6 hPa - - - -
1788543807 35° C 47% 1014.6 hPa - - - -
1788543208 33.89° C 46% 1014.9 hPa - - - -
1788542605 33.89° C 46% 1014.9 hPa - - - -
1788542006 33.89° C 49% 1015.2 hPa - - - -
1788541404 33.89° C 49% 1015.2 hPa - - - -
1788540806 33.89° C 49% 1015.2 hPa - - - -
1788540208 33.89° C 49% 1015.2 hPa - - - -
1788539605 31.67° C 55% 1015.2 hPa - - - -
1788539004 31.67° C 55% 1015.2 hPa - - - -
1788538404 31.67° C 55% 1015.2 hPa - - - -
1788537804 31.67° C 55% 1015.2 hPa - - - -
1788537205 31.67° C 55% 1015.2 hPa - - - -
1788536603 31.67° C 55% 1015.2 hPa - - - -
1788536006 31.67° C 59% 1015.2 hPa - - - -
1788535408 31.67° C 59% 1015.2 hPa - - - -
1788534804 30.56° C 62% 1015.2 hPa - - - -
1788534203 30.56° C 62% 1015.2 hPa - - - -
1788533607 30° C 66% 1015.2 hPa - - - -

* Rain since midnight (hover to see other rain measurements)
** Current wind speed in m/s (hover to see current wind gust speed)